Terminal Aerodrome Forecast
Issued by NWS Louisville, KY

Home | Current Version | Previous Version | Text Only | Print | Product List | Glossary On
Versions: 1 2 3 4 5 6 7 8 9 10 11 12 13 14 15 16 17 18 19 20 21 22
000
FTUS43 KLMK 201900 AAA
TAFSDF
TAF AMD
KSDF 201928Z 2019/2124 28012KT P6SM FEW040 BKN250
     FM202000 28010KT P6SM VCTS BKN040CB
      TEMPO 2020/2022 VRB20G30KT 2SM TSRA BKN025CB
     FM210500 21004KT P6SM SCT040 BKN250
     FM211500 25006KT P6SM SCT040 BKN250=

USA.gov is the U.S. government's official web portal to all federal, state and local government web resources and services.